createdAt,value
2018-05-11T00:02:17.992Z,18.93
2018-05-11T00:04:44.634Z,18.96
2018-05-11T00:07:11.262Z,18.96
2018-05-11T00:09:37.795Z,18.95
2018-05-11T00:12:04.345Z,18.88
2018-05-11T00:14:30.938Z,18.82
2018-05-11T00:16:57.494Z,18.78
2018-05-11T00:19:23.993Z,18.80
2018-05-11T00:21:50.578Z,18.82
2018-05-11T00:24:17.096Z,18.81
2018-05-11T00:26:43.789Z,18.86
2018-05-11T00:29:10.611Z,18.80
2018-05-11T00:31:37.483Z,18.77
2018-05-11T00:34:03.997Z,18.73
2018-05-11T00:36:30.573Z,18.73
2018-05-11T00:38:57.056Z,18.76
2018-05-11T00:41:23.709Z,18.77
2018-05-11T00:43:50.294Z,18.82
2018-05-11T00:46:16.865Z,18.91
2018-05-11T00:48:43.454Z,18.80
2018-05-11T00:51:09.963Z,18.87
2018-05-11T00:53:36.773Z,18.86
2018-05-11T00:56:03.373Z,18.73
2018-05-11T00:58:29.846Z,18.73
2018-05-11T01:00:56.428Z,18.69
2018-05-11T01:03:22.961Z,18.73
2018-05-11T01:05:49.696Z,18.76
2018-05-11T01:08:16.330Z,18.72
2018-05-11T01:10:43.103Z,18.72
2018-05-11T01:13:09.727Z,18.81
2018-05-11T01:15:36.329Z,18.75
2018-05-11T01:18:02.814Z,18.72
2018-05-11T01:20:29.407Z,18.82
2018-05-11T01:22:56.033Z,18.87
2018-05-11T01:25:22.610Z,18.86
2018-05-11T01:27:49.143Z,18.93
2018-05-11T01:30:15.669Z,18.86
2018-05-11T01:32:42.343Z,18.85
2018-05-11T01:35:09.034Z,18.83
2018-05-11T01:37:35.612Z,18.73
2018-05-11T01:40:02.159Z,18.67
2018-05-11T01:42:28.783Z,18.63
2018-05-11T01:44:55.219Z,18.63
2018-05-11T01:47:21.773Z,18.67
2018-05-11T01:49:48.389Z,18.72
2018-05-11T01:52:15.056Z,18.71
2018-05-11T01:54:41.640Z,18.71
2018-05-11T01:57:08.268Z,18.75
2018-05-11T01:59:34.764Z,18.81
2018-05-11T02:02:01.266Z,18.80
2018-05-11T02:04:27.921Z,18.75
2018-05-11T02:06:54.506Z,18.77
2018-05-11T02:12:02.089Z,18.75
2018-05-11T02:14:28.568Z,18.75
2018-05-11T02:16:55.176Z,18.68
2018-05-11T02:19:21.764Z,18.58
2018-05-11T02:21:48.298Z,18.51
2018-05-11T02:24:15.007Z,18.55
2018-05-11T02:26:48.606Z,18.60
2018-05-11T02:29:15.081Z,18.58
2018-05-11T02:31:41.584Z,18.46
2018-05-11T02:34:08.228Z,18.54
2018-05-11T02:36:34.748Z,18.58
2018-05-11T02:39:01.260Z,18.59
2018-05-11T02:41:27.906Z,18.58
2018-05-11T02:43:54.494Z,18.58
2018-05-11T02:46:21.123Z,18.45
2018-05-11T02:48:47.663Z,18.42
2018-05-11T02:51:14.322Z,18.49
2018-05-11T02:53:40.897Z,18.53
2018-05-11T02:56:07.510Z,18.56
2018-05-11T02:58:34.072Z,18.54
2018-05-11T03:01:00.647Z,18.58
2018-05-11T03:03:27.306Z,18.64
2018-05-11T03:05:53.865Z,18.60
2018-05-11T03:08:20.441Z,18.67
2018-05-11T03:10:47.138Z,18.71
2018-05-11T03:13:13.849Z,18.68
2018-05-11T03:15:40.546Z,18.66
2018-05-11T03:18:07.145Z,18.69
2018-05-11T03:20:33.855Z,18.78
2018-05-11T03:23:00.590Z,18.76
2018-05-11T03:32:12.196Z,18.53
2018-05-11T03:34:38.688Z,18.39
2018-05-11T03:37:05.215Z,18.35
2018-05-11T03:39:31.803Z,18.36
2018-05-11T03:41:59.008Z,18.36
2018-05-11T03:44:25.623Z,18.37
2018-05-11T03:46:52.183Z,18.35
2018-05-11T03:49:18.715Z,18.30
2018-05-11T03:51:45.260Z,18.30
2018-05-11T03:54:11.809Z,18.28
2018-05-11T03:56:38.566Z,18.27
2018-05-11T03:59:05.239Z,18.19
2018-05-11T04:01:43.946Z,18.21
2018-05-11T04:04:22.715Z,18.22
2018-05-11T04:07:01.476Z,18.26
2018-05-11T04:09:27.869Z,18.28
2018-05-11T04:11:54.506Z,18.30
2018-05-11T04:14:21.577Z,18.27
2018-05-11T04:16:48.270Z,18.28
2018-05-11T04:19:14.854Z,18.32
2018-05-11T04:21:41.698Z,18.27
2018-05-11T04:24:08.319Z,18.25
2018-05-11T04:26:35.108Z,18.33
2018-05-11T04:29:01.662Z,18.38
2018-05-11T04:31:28.155Z,18.41
2018-05-11T04:33:54.851Z,18.43
2018-05-11T04:36:21.682Z,18.46
2018-05-11T04:38:48.318Z,18.38
2018-05-11T04:41:14.834Z,18.40
2018-05-11T04:43:41.468Z,18.46
2018-05-11T04:46:07.964Z,18.49
2018-05-11T04:51:15.600Z,18.61
2018-05-11T04:53:42.166Z,18.68
2018-05-11T04:56:08.822Z,18.72
2018-05-11T04:58:35.439Z,18.85
2018-05-11T05:01:01.932Z,18.83
2018-05-11T05:03:28.519Z,18.92
2018-05-11T05:05:54.950Z,18.85
2018-05-11T05:08:21.420Z,18.83
2018-05-11T05:10:48.051Z,18.86
2018-05-11T05:13:14.613Z,18.90
2018-05-11T05:15:41.206Z,18.89
2018-05-11T05:18:07.734Z,18.96
2018-05-11T05:20:34.490Z,19.01
2018-05-11T05:23:01.072Z,19.06
2018-05-11T05:25:27.669Z,19.09
2018-05-11T05:27:54.209Z,19.12
2018-05-11T05:30:20.746Z,19.11
2018-05-11T05:32:47.365Z,19.12
2018-05-11T05:35:13.888Z,19.19
2018-05-11T05:37:40.324Z,19.21
2018-05-11T05:40:06.737Z,19.23
2018-05-11T05:42:33.214Z,19.28
2018-05-11T05:45:06.747Z,19.26
2018-05-11T05:47:33.217Z,19.29
2018-05-11T05:49:59.793Z,19.32
2018-05-11T05:52:26.285Z,19.38
2018-05-11T05:54:52.849Z,19.26
2018-05-11T05:57:19.422Z,19.25
2018-05-11T05:59:45.988Z,19.25
2018-05-11T06:02:12.534Z,19.26
2018-05-11T06:04:39.149Z,19.29
2018-05-11T06:07:05.652Z,19.32
2018-05-11T06:09:32.311Z,19.28
2018-05-11T06:11:58.997Z,19.25
2018-05-11T06:14:25.516Z,19.29
2018-05-11T06:16:51.991Z,19.23
2018-05-11T06:19:18.431Z,19.24
2018-05-11T06:21:44.927Z,19.26
2018-05-11T06:24:11.486Z,19.15
2018-05-11T06:26:38.046Z,19.04
2018-05-11T06:29:04.538Z,18.99
2018-05-11T06:31:31.032Z,19.05
2018-05-11T06:33:57.592Z,19.15
2018-05-11T06:36:24.159Z,19.10
2018-05-11T06:38:50.705Z,19.11
2018-05-11T06:41:17.230Z,19.16
2018-05-11T06:43:43.799Z,19.18
2018-05-11T06:46:10.410Z,19.11
2018-05-11T06:48:36.986Z,19.18
2018-05-11T06:51:03.459Z,19.09
2018-05-11T06:53:30.004Z,19.13
2018-05-11T06:55:56.678Z,19.12
2018-05-11T06:58:23.212Z,19.22
2018-05-11T07:00:49.771Z,19.14
2018-05-11T07:03:16.442Z,19.17
2018-05-11T07:05:43.144Z,19.07
2018-05-11T07:08:09.632Z,19.05
2018-05-11T07:10:36.230Z,19.01
2018-05-11T07:13:05.134Z,19.06
2018-05-11T07:15:31.564Z,19.09
2018-05-11T07:17:58.095Z,19.21
2018-05-11T07:20:24.552Z,19.28
2018-05-11T07:22:51.147Z,19.31
2018-05-11T07:25:17.653Z,19.34
2018-05-11T07:27:44.179Z,19.37
2018-05-11T07:30:10.823Z,19.43
2018-05-11T07:32:37.322Z,19.51
2018-05-11T07:35:03.997Z,19.58
2018-05-11T07:37:30.424Z,19.66
2018-05-11T07:39:56.956Z,19.77
2018-05-11T07:42:23.453Z,19.56
2018-05-11T07:44:49.941Z,19.58
2018-05-11T07:47:16.601Z,19.65
2018-05-11T07:49:43.247Z,19.66
2018-05-11T07:52:09.800Z,19.73
2018-05-11T07:54:36.305Z,19.68
2018-05-11T07:57:02.980Z,19.55
2018-05-11T07:59:29.555Z,19.62
2018-05-11T08:01:56.077Z,19.65
2018-05-11T08:04:22.615Z,19.79
2018-05-11T08:06:49.134Z,19.84
2018-05-11T08:09:16.007Z,19.92
2018-05-11T08:11:42.693Z,20.03
2018-05-11T08:14:09.283Z,20.17
2018-05-11T08:16:35.837Z,20.32
2018-05-11T08:19:02.407Z,20.40
2018-05-11T08:21:29.009Z,20.57
2018-05-11T08:23:55.704Z,20.63
2018-05-11T08:26:22.242Z,20.55
2018-05-11T08:28:48.731Z,20.61
2018-05-11T08:31:15.190Z,20.61
2018-05-11T08:33:41.664Z,20.64
2018-05-11T08:36:08.313Z,20.74
2018-05-11T08:38:34.931Z,20.67
2018-05-11T08:41:01.477Z,20.68
2018-05-11T08:43:27.901Z,20.67
2018-05-11T08:45:54.517Z,20.74
2018-05-11T08:48:21.192Z,20.61
2018-05-11T08:50:47.821Z,20.43
2018-05-11T08:53:14.468Z,20.40
2018-05-11T08:55:41.136Z,20.44
2018-05-11T08:58:07.689Z,20.42
2018-05-11T09:00:34.274Z,20.36
2018-05-11T09:03:00.913Z,20.37
2018-05-11T09:05:27.453Z,20.44
2018-05-11T09:07:54.188Z,20.57
2018-05-11T09:10:20.823Z,20.71
2018-05-11T09:12:47.579Z,20.76
2018-05-11T09:15:14.128Z,20.95
2018-05-11T09:17:40.854Z,21.00
2018-05-11T09:20:07.405Z,21.09
2018-05-11T09:22:33.925Z,21.04
2018-05-11T09:25:00.674Z,21.10
2018-05-11T09:27:27.314Z,21.15
2018-05-11T09:29:53.842Z,21.13
2018-05-11T09:32:20.341Z,21.11
2018-05-11T09:34:46.889Z,20.90
2018-05-11T09:37:13.583Z,21.01
2018-05-11T09:39:40.095Z,21.13
2018-05-11T09:42:06.751Z,21.08
2018-05-11T09:44:33.234Z,21.12
2018-05-11T09:46:59.776Z,21.03
2018-05-11T09:49:26.410Z,20.94
2018-05-11T09:51:53.053Z,20.96
2018-05-11T09:54:19.593Z,20.98
2018-05-11T09:56:46.104Z,20.91
2018-05-11T09:59:12.665Z,20.95
2018-05-11T10:01:39.358Z,21.00
2018-05-11T10:04:05.865Z,20.91
2018-05-11T10:06:32.525Z,21.06
2018-05-11T10:08:59.145Z,21.17
2018-05-11T10:11:25.620Z,21.26
2018-05-11T10:13:52.220Z,21.19
2018-05-11T10:16:18.842Z,21.17
2018-05-11T10:18:45.434Z,21.26
2018-05-11T10:21:11.942Z,21.46
2018-05-11T10:23:38.448Z,21.52
2018-05-11T10:26:05.128Z,21.65
2018-05-11T10:28:31.618Z,21.77
2018-05-11T10:30:58.166Z,21.89
2018-05-11T10:33:24.783Z,21.93
2018-05-11T10:35:51.326Z,21.88
2018-05-11T10:38:17.950Z,21.90
2018-05-11T10:40:44.513Z,21.80
2018-05-11T10:43:11.120Z,21.96
2018-05-11T10:45:37.656Z,21.90
2018-05-11T10:48:04.337Z,21.84
2018-05-11T10:50:31.028Z,21.80
2018-05-11T10:52:57.637Z,21.65
2018-05-11T10:55:24.275Z,21.70
2018-05-11T10:57:50.913Z,21.76
2018-05-11T11:00:17.480Z,21.77
2018-05-11T11:02:44.045Z,21.82
2018-05-11T11:05:10.655Z,21.84
2018-05-11T11:07:37.282Z,21.79
2018-05-11T11:10:04.206Z,21.86
2018-05-11T11:12:30.772Z,21.83
2018-05-11T11:14:57.319Z,21.88
2018-05-11T11:17:24.041Z,21.91
2018-05-11T11:19:50.617Z,22.11
2018-05-11T11:22:17.206Z,22.15
2018-05-11T11:24:43.847Z,22.20
2018-05-11T11:27:10.404Z,22.11
2018-05-11T11:29:37.117Z,22.19
2018-05-11T11:32:03.678Z,22.21
2018-05-11T11:34:30.456Z,22.31
2018-05-11T11:36:56.909Z,22.34
2018-05-11T11:39:23.553Z,22.27
2018-05-11T11:41:50.219Z,22.30
2018-05-11T11:44:16.749Z,22.33
2018-05-11T11:46:43.534Z,22.37
2018-05-11T11:49:10.145Z,22.46
2018-05-11T11:51:36.732Z,22.45
2018-05-11T11:54:03.381Z,22.48
2018-05-11T11:56:29.975Z,22.47
2018-05-11T11:58:56.421Z,22.52
2018-05-11T12:01:23.022Z,22.47
2018-05-11T12:03:49.721Z,22.53
2018-05-11T12:06:16.291Z,22.62
2018-05-11T12:08:42.921Z,22.57
2018-05-11T12:11:09.501Z,22.53
2018-05-11T12:13:36.114Z,22.55
2018-05-11T12:16:02.771Z,22.43
2018-05-11T12:18:29.296Z,22.22
2018-05-11T12:20:55.980Z,21.85
2018-05-11T12:23:22.617Z,21.63
2018-05-11T12:25:49.361Z,21.13
2018-05-11T12:28:15.917Z,21.00
2018-05-11T12:30:42.646Z,20.72
2018-05-11T12:33:09.320Z,20.48
2018-05-11T12:35:35.974Z,20.11
2018-05-11T12:38:02.536Z,19.74
2018-05-11T12:40:29.241Z,19.27
2018-05-11T12:42:55.832Z,18.92
2018-05-11T12:45:22.381Z,18.78
2018-05-11T12:47:48.869Z,18.76
2018-05-11T12:50:15.441Z,18.85
2018-05-11T12:52:42.054Z,19.08
2018-05-11T12:55:08.882Z,19.12
2018-05-11T12:57:35.426Z,19.26
2018-05-11T13:00:02.022Z,19.29
2018-05-11T13:02:28.534Z,19.31
2018-05-11T13:04:55.108Z,19.38
2018-05-11T13:07:21.704Z,19.42
2018-05-11T13:09:48.327Z,19.49
2018-05-11T13:12:14.776Z,19.48
2018-05-11T13:14:41.308Z,19.47
2018-05-11T13:17:07.843Z,19.51
2018-05-11T13:19:34.481Z,19.36
2018-05-11T13:22:01.209Z,19.25
2018-05-11T13:24:27.834Z,19.16
2018-05-11T13:26:54.400Z,19.09
2018-05-11T13:29:21.059Z,19.09
2018-05-11T13:31:47.693Z,19.17
2018-05-11T13:34:14.153Z,19.18
2018-05-11T13:36:40.600Z,19.21
2018-05-11T13:39:07.120Z,19.24
2018-05-11T13:41:33.597Z,19.30
2018-05-11T13:44:00.236Z,19.30
2018-05-11T13:46:26.917Z,19.35
2018-05-11T13:49:00.314Z,19.38
2018-05-11T13:51:27.485Z,19.30
2018-05-11T13:53:54.039Z,19.26
2018-05-11T13:56:20.612Z,19.33
2018-05-11T13:58:47.208Z,19.41
2018-05-11T14:01:13.757Z,19.43
2018-05-11T14:03:40.237Z,19.51
2018-05-11T14:06:06.894Z,19.60
2018-05-11T14:08:33.425Z,19.58
2018-05-11T14:10:59.998Z,19.64
2018-05-11T14:13:26.650Z,19.77
2018-05-11T14:15:53.270Z,19.74
2018-05-11T14:18:19.718Z,19.75
2018-05-11T14:20:46.358Z,19.77
2018-05-11T14:23:12.877Z,19.72
2018-05-11T14:25:39.472Z,19.74
2018-05-11T14:28:05.975Z,19.77
2018-05-11T14:30:32.420Z,19.70
2018-05-11T14:32:58.960Z,19.64
2018-05-11T14:35:25.582Z,19.62
2018-05-11T14:37:52.237Z,19.59
2018-05-11T14:40:18.985Z,19.66
2018-05-11T14:42:45.605Z,19.59
2018-05-11T14:45:12.081Z,19.52
2018-05-11T14:47:38.570Z,19.48
2018-05-11T14:50:05.177Z,19.39
2018-05-11T14:52:31.710Z,19.48
2018-05-11T14:54:58.364Z,19.46
2018-05-11T14:57:25.091Z,19.57
2018-05-11T14:59:51.777Z,19.60
2018-05-11T15:02:18.485Z,19.68
2018-05-11T15:04:46.113Z,19.83
2018-05-11T15:07:17.762Z,19.98
2018-05-11T15:12:35.778Z,20.26
2018-05-11T15:15:02.791Z,20.31
2018-05-11T15:17:39.570Z,20.36
2018-05-11T15:20:07.079Z,20.26
2018-05-11T15:25:20.844Z,20.29
2018-05-11T15:27:57.869Z,20.31
2018-05-11T15:30:27.987Z,20.31
2018-05-11T15:32:54.779Z,20.37
2018-05-11T15:35:21.356Z,20.47
2018-05-11T15:37:52.611Z,20.75
2018-05-11T15:40:19.489Z,20.67
2018-05-11T15:42:48.470Z,20.57
2018-05-11T15:45:18.338Z,20.44
2018-05-11T15:47:45.120Z,20.33
2018-05-11T15:53:00.356Z,20.50
2018-05-11T15:55:28.223Z,20.58
2018-05-11T15:57:54.809Z,20.67
2018-05-11T16:00:40.790Z,20.60
2018-05-11T16:03:09.601Z,20.49
2018-05-11T16:05:45.394Z,20.44
2018-05-11T16:11:31.675Z,20.13
2018-05-11T16:14:00.431Z,20.12
2018-05-11T16:16:43.359Z,20.19
2018-05-11T16:19:09.930Z,19.92
2018-05-11T16:21:43.167Z,19.92
2018-05-11T16:24:47.323Z,19.72
2018-05-11T16:30:15.874Z,19.99
2018-05-11T16:32:51.172Z,20.09
2018-05-11T16:35:26.418Z,20.21
2018-05-11T16:37:53.225Z,20.25
2018-05-11T16:40:20.145Z,20.31
2018-05-11T16:42:46.714Z,20.34
2018-05-11T16:45:13.260Z,20.43
2018-05-11T16:47:54.656Z,20.47
2018-05-11T16:50:22.053Z,20.55
2018-05-11T16:56:30.096Z,20.51
2018-05-11T16:58:59.779Z,20.43
2018-05-11T17:01:27.085Z,20.37
2018-05-11T17:03:53.741Z,20.39
2018-05-11T17:06:20.354Z,20.35
2018-05-11T17:08:46.973Z,20.26
2018-05-11T17:11:13.524Z,20.18
2018-05-11T17:13:40.110Z,20.09
2018-05-11T17:16:06.913Z,19.95
2018-05-11T17:18:33.559Z,19.98
2018-05-11T17:21:01.310Z,19.97
2018-05-11T17:23:28.005Z,19.96
2018-05-11T17:26:01.163Z,19.99
2018-05-11T17:28:32.409Z,19.99
2018-05-11T17:30:59.731Z,19.93
2018-05-11T17:33:26.214Z,19.96
2018-05-11T17:35:52.890Z,19.97
2018-05-11T17:38:19.578Z,19.98
2018-05-11T17:40:47.053Z,19.86
2018-05-11T17:45:46.987Z,19.78
2018-05-11T17:48:13.724Z,19.81
2018-05-11T17:50:40.370Z,19.80
2018-05-11T17:53:07.714Z,19.81
2018-05-11T17:55:34.148Z,19.75
2018-05-11T17:58:00.913Z,19.72
2018-05-11T18:00:27.959Z,19.68
2018-05-11T18:02:55.720Z,19.72
2018-05-11T18:05:26.878Z,19.68
2018-05-11T18:10:40.520Z,19.53
2018-05-11T18:13:32.136Z,19.55
2018-05-11T18:19:21.730Z,19.55
2018-05-11T18:21:49.085Z,19.56
2018-05-11T18:24:20.105Z,19.53
2018-05-11T18:29:52.227Z,19.43
2018-05-11T18:32:18.975Z,19.41
2018-05-11T18:34:45.753Z,19.40
2018-05-11T18:37:13.761Z,19.36
2018-05-11T18:39:40.893Z,19.34
2018-05-11T18:48:43.556Z,19.03
2018-05-11T18:51:19.940Z,18.95
2018-05-11T18:53:48.752Z,18.94
2018-05-11T18:56:19.791Z,18.87
2018-05-11T18:58:56.093Z,18.88
2018-05-11T19:01:24.892Z,18.89
2018-05-11T19:03:52.184Z,18.81
2018-05-11T19:38:02.666Z,18.32
2018-05-11T19:43:16.481Z,18.25
2018-05-11T19:45:42.996Z,18.25
2018-05-11T19:51:12.121Z,18.25
2018-05-11T19:53:39.475Z,18.23
2018-05-11T19:56:06.171Z,18.14
2018-05-11T19:58:32.667Z,18.10
2018-05-11T20:00:59.295Z,18.00
2018-05-11T20:03:25.797Z,18.01
2018-05-11T20:05:52.343Z,18.00
2018-05-11T20:08:18.956Z,18.03
2018-05-11T20:10:45.606Z,17.97
2018-05-11T20:13:12.735Z,17.96
2018-05-11T20:15:39.965Z,17.94
2018-05-11T20:18:06.684Z,17.89
2018-05-11T20:20:33.254Z,17.92
2018-05-11T20:23:00.112Z,17.91
2018-05-11T20:25:26.601Z,17.96
2018-05-11T20:27:56.739Z,17.95
2018-05-11T20:30:23.566Z,17.93
2018-05-11T20:32:50.319Z,17.91
2018-05-11T20:35:16.737Z,17.91
2018-05-11T20:37:43.758Z,17.93
2018-05-11T20:40:10.697Z,17.94
2018-05-11T20:42:37.390Z,17.87
2018-05-11T20:45:04.226Z,17.92
2018-05-11T20:47:30.810Z,17.88
2018-05-11T20:49:57.582Z,17.83
2018-05-11T20:52:24.397Z,17.80
2018-05-11T20:54:51.268Z,17.75
2018-05-11T20:57:18.053Z,17.71
2018-05-11T20:59:44.914Z,17.62
2018-05-11T21:02:11.798Z,17.60
2018-05-11T21:04:38.580Z,17.53
2018-05-11T21:07:05.691Z,17.57
2018-05-11T21:09:32.554Z,17.56
2018-05-11T21:11:59.391Z,17.42
2018-05-11T21:14:28.458Z,17.46
2018-05-11T21:16:56.194Z,17.52
2018-05-11T21:19:23.130Z,17.56
2018-05-11T21:21:50.167Z,17.57
2018-05-11T21:24:17.918Z,17.50
2018-05-11T21:26:44.938Z,17.53
2018-05-11T21:29:11.743Z,17.45
2018-05-11T21:31:38.369Z,17.46
2018-05-11T21:34:05.055Z,17.53
2018-05-11T21:36:31.725Z,17.48
2018-05-11T21:38:58.793Z,17.46
2018-05-11T21:41:25.650Z,17.45
2018-05-11T21:43:52.532Z,17.37
2018-05-11T21:46:19.587Z,17.38
2018-05-11T21:48:46.373Z,17.38
2018-05-11T21:51:13.025Z,17.28
2018-05-11T21:53:39.770Z,17.27
2018-05-11T21:56:06.429Z,17.28
2018-05-11T21:58:33.159Z,17.27
2018-05-11T22:00:59.865Z,17.27
2018-05-11T22:03:26.686Z,17.31
2018-05-11T22:05:53.652Z,17.30
2018-05-11T22:08:20.152Z,17.25
2018-05-11T22:10:46.593Z,17.21
2018-05-11T22:13:13.095Z,17.18
2018-05-11T22:15:39.759Z,17.19
2018-05-11T22:18:06.304Z,17.20
2018-05-11T22:20:32.861Z,17.19
2018-05-11T22:22:59.297Z,17.25
2018-05-11T22:25:25.968Z,17.24
2018-05-11T22:27:52.475Z,17.21
2018-05-11T22:30:18.996Z,17.19
2018-05-11T22:32:45.468Z,17.17
2018-05-11T22:35:12.108Z,17.16
2018-05-11T22:37:38.766Z,17.12
2018-05-11T22:40:05.332Z,17.10
2018-05-11T22:42:31.913Z,17.04
2018-05-11T22:44:58.463Z,17.03
2018-05-11T22:47:24.895Z,16.93
2018-05-11T22:49:51.475Z,16.87
2018-05-11T22:52:18.081Z,16.88
2018-05-11T22:54:44.766Z,17.00
2018-05-11T22:57:11.328Z,16.96
2018-05-11T22:59:37.841Z,16.92
2018-05-11T23:02:04.363Z,16.87
2018-05-11T23:04:31.048Z,16.85
2018-05-11T23:06:57.805Z,16.80
2018-05-11T23:09:24.523Z,16.72
2018-05-11T23:11:51.079Z,16.67
2018-05-11T23:14:17.608Z,16.69
2018-05-11T23:16:44.147Z,16.66
2018-05-11T23:21:37.264Z,16.62
2018-05-11T23:24:03.811Z,16.60
2018-05-11T23:26:30.500Z,16.54
2018-05-11T23:28:57.000Z,16.48
2018-05-11T23:31:23.573Z,16.47
2018-05-11T23:33:50.110Z,16.49
2018-05-11T23:36:16.740Z,16.40
2018-05-11T23:38:43.476Z,16.41
2018-05-11T23:41:09.914Z,16.46
2018-05-11T23:43:36.590Z,16.46
2018-05-11T23:46:03.094Z,16.49
2018-05-11T23:48:29.620Z,16.56
2018-05-11T23:50:56.188Z,16.57
2018-05-11T23:53:22.844Z,16.58
2018-05-11T23:55:49.380Z,16.55
2018-05-11T23:58:16.043Z,16.65
